Shanghai Express — DPCK — position and weather

sailwx.info

Track history (hours):
 
Tides and Currents Weather Stations Pressure Air Temp Water Temp Dewpoint Dewpoint Depression Visibility Wind Speed Wind Dir Waves Ship Positions

Shanghai Express

Last reported at 2015-Jun-27 18:18 UTC. Time now 2015-Jul-01 04:53 UTC.
Position N 32°02' E 030°41'.

Length 320.6 m; beam 42.8 m; draft 14.5 m.

Type: Ship (hazmat cat A). MMSI: 211367460.

Date/timePositionNaut miles runAvg speedWind from/ knotsBaromVisibWave heightAir tempDewpointWater temp
2015-Jun-27 18:18N 32°02' E 030°41'80118.7
2015-Jun-25 23:30N 36°22' E 015°25'1818.4
2015-Jun-25 22:31N 36°28' E 015°04'1918.7
2015-Jun-25 21:31N 36°34' E 014°42'1818.6
2015-Jun-25 20:34N 36°40' E 014°21'1818.4
2015-Jun-25 19:34N 36°48' E 014°00'1919.0
2015-Jun-25 18:33N 36°56' E 013°38'5819.3
2015-Jun-25 15:33N 37°20' E 012°32'1919.2
2015-Jun-25 14:33N 37°28' E 012°10'2018.4
2015-Jun-25 13:29N 37°38' E 011°49'1718.3
2015-Jun-25 12:33N 37°48' E 011°32'1918.6
2015-Jun-25 11:34N 37°58' E 011°12'1818.5
2015-Jun-25 10:34N 38°09' E 010°53'1918.7
2015-Jun-25 09:34N 38°20' E 010°33'3818.8
2015-Jun-25 07:34N 38°41' E 009°54'1818.3
2015-Jun-25 06:33N 38°51' E 009°34'1818.1
2015-Jun-25 05:33N 39°02' E 009°15'1312.7
2015-Jun-25 04:33N 39°12' E 009°05'1 1.1
2015-Jun-25 03:32N 39°13' E 009°04'0 0.0
2015-Jun-25 02:31N 39°13' E 009°04'0 0.0
2015-Jun-25 01:31N 39°13' E 009°04'0 0.0
2015-Jun-25 00:31N 39°13' E 009°04'0 0.0
2015-Jun-24 23:33N 39°13' E 009°04'0 0.0
2015-Jun-24 22:33N 39°13' E 009°04'0 0.0
2015-Jun-24 21:32N 39°13' E 009°04'0 0.0
2015-Jun-24 20:32N 39°13' E 009°04'0 0.0
2015-Jun-24 19:31N 39°13' E 009°04'0 0.0
2015-Jun-24 18:31N 39°13' E 009°04'0 0.0
2015-Jun-24 17:31N 39°13' E 009°04'0 0.0
2015-Jun-24 16:33N 39°13' E 009°04'0 0.0
2015-Jun-24 15:33N 39°13' E 009°04'0 0.0
2015-Jun-24 14:32N 39°13' E 009°04'0 0.0
2015-Jun-24 13:32N 39°13' E 009°04'0 0.0
2015-Jun-24 12:31N 39°13' E 009°04'0 0.0
2015-Jun-24 11:31N 39°13' E 009°04'0 0.0
2015-Jun-24 10:31N 39°13' E 009°04'0 0.0
2015-Jun-24 09:33N 39°13' E 009°04'0 0.0
2015-Jun-24 08:33N 39°13' E 009°04'0 0.0
2015-Jun-24 07:32N 39°13' E 009°04'0 0.0
2015-Jun-24 06:32N 39°13' E 009°04'0 0.0
2015-Jun-24 05:31N 39°13' E 009°04'0 0.0
2015-Jun-24 04:31N 39°13' E 009°04'4 4.0
2015-Jun-24 03:33N 39°09' E 009°06'1312.8
2015-Jun-24 02:33N 38°56' E 009°04'1515.4
2015-Jun-24 01:33N 38°47' E 008°49'1716.5
2015-Jun-24 00:33N 38°42' E 008°28'3616.6
2015-Jun-23 22:22N 38°32' E 007°44'1316.6
2015-Jun-23 21:34N 38°29' E 007°27'34113.1
2015-Jun-22 19:33N 36°59' E 000°32'1716.7
2015-Jun-22 18:33N 36°54' E 000°12'1716.6
2015-Jun-22 17:33N 36°50' W 000°08'1616.3
2015-Jun-22 16:33N 36°46' W 000°28'1716.6
2015-Jun-22 15:33N 36°41' W 000°48'1616.4
2015-Jun-22 14:33N 36°37' W 001°08'1716.6
2015-Jun-22 13:33N 36°32' W 001°28'1816.7
2015-Jun-22 12:29N 36°28' W 001°49'17317.4
2015-Jun-22 02:34N 35°58' W 005°20'10416.7
2015-Jun-21 20:19N 35°55' W 007°29'1316.8
2015-Jun-21 19:33N 35°55' W 007°45'1716.8
2015-Jun-21 18:33N 35°60' W 008°05'1717.2
2015-Jun-21 17:33N 36°06' W 008°25'1717.0
2015-Jun-21 16:33N 36°12' W 008°44'1716.8
2015-Jun-21 15:33N 36°17' W 009°04'1716.5
2015-Jun-21 14:33N 36°23' W 009°23'1616.2
2015-Jun-21 13:32N 36°29' W 009°42'1616.3
2015-Jun-21 12:33N 36°35' W 010°01'1616.2
2015-Jun-21 11:33N 36°40' W 010°20'1616.3
2015-Jun-21 10:33N 36°46' W 010°39'1616.3
2015-Jun-21 09:33N 36°52' W 010°58'1616.2
2015-Jun-21 08:33N 36°57' W 011°17'1616.1
2015-Jun-21 07:33N 37°02' W 011°36'1919.1
2015-Jun-21 06:33N 37°08' W 011°59'1616.2
2015-Jun-21 05:33N 37°14' W 012°18'1616.3
2015-Jun-21 04:33N 37°19' W 012°38'3316.4
2015-Jun-21 02:33N 37°29' W 013°17'1716.5
2015-Jun-21 01:33N 37°34' W 013°37'4916.5
2015-Jun-20 22:33N 37°47' W 014°37'1716.4
2015-Jun-20 21:30N 37°51' W 014°58'1616.2
2015-Jun-20 20:32N 37°54' W 015°18'1616.2
2015-Jun-20 19:31N 37°58' W 015°38'1616.2
2015-Jun-20 18:33N 38°01' W 015°57'1313.2
2015-Jun-20 17:33N 38°03' W 016°14'1 0.9
2015-Jun-20 16:13N 38°04' W 016°13'1 0.9
2015-Jun-20 15:30N 38°05' W 016°13'1 0.9
2015-Jun-20 14:21N 38°05' W 016°12'4 1.0
2015-Jun-20 10:08N 38°08' W 016°08'55311.5
2015-Jun-18 10:16N 40°10' W 027°43'4315.9
2015-Jun-18 07:33N 40°16' W 028°39'1616.0
2015-Jun-18 06:33N 40°18' W 028°60'1615.9
2015-Jun-18 05:33N 40°21' W 029°20'1616.2
2015-Jun-18 04:33N 40°23' W 029°42'1816.3
2015-Jun-18 03:27N 40°25' W 030°05'3216.8
2015-Jun-18 01:33N 40°29' W 030°47'  
Track history (hours):
 
Tides and Currents Weather Stations Pressure Air Temp Water Temp Dewpoint Dewpoint Depression Visibility Wind Speed Wind Dir Waves Ship Positions

Shanghai Express

Last reported at 2015-Jun-27 18:18 UTC. Time now 2015-Jul-01 04:53 UTC.
Position N 32°02' E 030°41'.

Length 320.6 m; beam 42.8 m; draft 14.5 m.

Type: Ship (hazmat cat A). MMSI: 211367460.

Date/timePositionNaut miles runAvg speedWind from/ knotsBaromVisibWave heightAir tempDewpointWater temp
2015-Jun-27 18:18N 32°02' E 030°41'80118.7
2015-Jun-25 23:30N 36°22' E 015°25'1818.4
2015-Jun-25 22:31N 36°28' E 015°04'1918.7
2015-Jun-25 21:31N 36°34' E 014°42'1818.6
2015-Jun-25 20:34N 36°40' E 014°21'1818.4
2015-Jun-25 19:34N 36°48' E 014°00'1919.0
2015-Jun-25 18:33N 36°56' E 013°38'5819.3
2015-Jun-25 15:33N 37°20' E 012°32'1919.2
2015-Jun-25 14:33N 37°28' E 012°10'2018.4
2015-Jun-25 13:29N 37°38' E 011°49'1718.3
2015-Jun-25 12:33N 37°48' E 011°32'1918.6
2015-Jun-25 11:34N 37°58' E 011°12'1818.5
2015-Jun-25 10:34N 38°09' E 010°53'1918.7
2015-Jun-25 09:34N 38°20' E 010°33'3818.8
2015-Jun-25 07:34N 38°41' E 009°54'1818.3
2015-Jun-25 06:33N 38°51' E 009°34'1818.1
2015-Jun-25 05:33N 39°02' E 009°15'1312.7
2015-Jun-25 04:33N 39°12' E 009°05'1 1.1
2015-Jun-25 03:32N 39°13' E 009°04'0 0.0
2015-Jun-25 02:31N 39°13' E 009°04'0 0.0
2015-Jun-25 01:31N 39°13' E 009°04'0 0.0
2015-Jun-25 00:31N 39°13' E 009°04'0 0.0
2015-Jun-24 23:33N 39°13' E 009°04'0 0.0
2015-Jun-24 22:33N 39°13' E 009°04'0 0.0
2015-Jun-24 21:32N 39°13' E 009°04'0 0.0
2015-Jun-24 20:32N 39°13' E 009°04'0 0.0
2015-Jun-24 19:31N 39°13' E 009°04'0 0.0
2015-Jun-24 18:31N 39°13' E 009°04'0 0.0
2015-Jun-24 17:31N 39°13' E 009°04'0 0.0
2015-Jun-24 16:33N 39°13' E 009°04'0 0.0
2015-Jun-24 15:33N 39°13' E 009°04'0 0.0
2015-Jun-24 14:32N 39°13' E 009°04'0 0.0
2015-Jun-24 13:32N 39°13' E 009°04'0 0.0
2015-Jun-24 12:31N 39°13' E 009°04'0 0.0
2015-Jun-24 11:31N 39°13' E 009°04'0 0.0
2015-Jun-24 10:31N 39°13' E 009°04'0 0.0
2015-Jun-24 09:33N 39°13' E 009°04'0 0.0
2015-Jun-24 08:33N 39°13' E 009°04'0 0.0
2015-Jun-24 07:32N 39°13' E 009°04'0 0.0
2015-Jun-24 06:32N 39°13' E 009°04'0 0.0
2015-Jun-24 05:31N 39°13' E 009°04'0 0.0
2015-Jun-24 04:31N 39°13' E 009°04'4 4.0
2015-Jun-24 03:33N 39°09' E 009°06'1312.8
2015-Jun-24 02:33N 38°56' E 009°04'1515.4
2015-Jun-24 01:33N 38°47' E 008°49'1716.5
2015-Jun-24 00:33N 38°42' E 008°28'3616.6
2015-Jun-23 22:22N 38°32' E 007°44'1316.6
2015-Jun-23 21:34N 38°29' E 007°27'34113.1
2015-Jun-22 19:33N 36°59' E 000°32'1716.7
2015-Jun-22 18:33N 36°54' E 000°12'1716.6
2015-Jun-22 17:33N 36°50' W 000°08'1616.3
2015-Jun-22 16:33N 36°46' W 000°28'1716.6
2015-Jun-22 15:33N 36°41' W 000°48'1616.4
2015-Jun-22 14:33N 36°37' W 001°08'1716.6
2015-Jun-22 13:33N 36°32' W 001°28'1816.7
2015-Jun-22 12:29N 36°28' W 001°49'17317.4
2015-Jun-22 02:34N 35°58' W 005°20'10416.7
2015-Jun-21 20:19N 35°55' W 007°29'1316.8
2015-Jun-21 19:33N 35°55' W 007°45'1716.8
2015-Jun-21 18:33N 35°60' W 008°05'1717.2
2015-Jun-21 17:33N 36°06' W 008°25'1717.0
2015-Jun-21 16:33N 36°12' W 008°44'1716.8
2015-Jun-21 15:33N 36°17' W 009°04'1716.5
2015-Jun-21 14:33N 36°23' W 009°23'1616.2
2015-Jun-21 13:32N 36°29' W 009°42'1616.3
2015-Jun-21 12:33N 36°35' W 010°01'1616.2
2015-Jun-21 11:33N 36°40' W 010°20'1616.3
2015-Jun-21 10:33N 36°46' W 010°39'1616.3
2015-Jun-21 09:33N 36°52' W 010°58'1616.2
2015-Jun-21 08:33N 36°57' W 011°17'1616.1
2015-Jun-21 07:33N 37°02' W 011°36'1919.1
2015-Jun-21 06:33N 37°08' W 011°59'1616.2
2015-Jun-21 05:33N 37°14' W 012°18'1616.3
2015-Jun-21 04:33N 37°19' W 012°38'3316.4
2015-Jun-21 02:33N 37°29' W 013°17'1716.5
2015-Jun-21 01:33N 37°34' W 013°37'4916.5
2015-Jun-20 22:33N 37°47' W 014°37'1716.4
2015-Jun-20 21:30N 37°51' W 014°58'1616.2
2015-Jun-20 20:32N 37°54' W 015°18'1616.2
2015-Jun-20 19:31N 37°58' W 015°38'1616.2
2015-Jun-20 18:33N 38°01' W 015°57'1313.2
2015-Jun-20 17:33N 38°03' W 016°14'1 0.9
2015-Jun-20 16:13N 38°04' W 016°13'1 0.9
2015-Jun-20 15:30N 38°05' W 016°13'1 0.9
2015-Jun-20 14:21N 38°05' W 016°12'4 1.0
2015-Jun-20 10:08N 38°08' W 016°08'55311.5
2015-Jun-18 10:16N 40°10' W 027°43'4315.9
2015-Jun-18 07:33N 40°16' W 028°39'1616.0
2015-Jun-18 06:33N 40°18' W 028°60'1615.9
2015-Jun-18 05:33N 40°21' W 029°20'1616.2
2015-Jun-18 04:33N 40°23' W 029°42'1816.3
2015-Jun-18 03:27N 40°25' W 030°05'3216.8
2015-Jun-18 01:33N 40°29' W 030°47'  

Dump ship's entire track history